Time;durP1;ratioP1;P1;durP2;ratioP2;P2;SDS_P1;SDS_P2;PMS_P1;PMS_P2;Temp;Humidity;BMP_temperature;BMP_pressure;BME280_temperature;BME280_humidity;BME280_pressure;Samples;Min_cycle;Max_cycle;Signal;HPM_P1;HPM_P2
2022/05/31 00:01:55;;;;;;;;;;;;;;;14.52;93.05;99580.84;5034187;28;803;-57
2022/05/31 00:04:22;;;;;;;;;;;;;;;14.65;92.80;99581.72;5034094;28;897;-57
2022/05/31 00:06:49;;;;;;;;;;;;;;;14.65;92.70;99576.16;5033949;28;1886;-57
2022/05/31 00:09:16;;;;;;;;;;;;;;;14.57;92.42;99579.56;5034042;28;811;-57
2022/05/31 00:11:44;;;;;;;;;;;;;;;14.50;92.77;99586.81;5016218;28;949;-57
2022/05/31 00:14:11;;;;;;;;;;;;;;;14.57;93.09;99585.88;5033416;28;851;-57
2022/05/31 00:16:37;;;;;;;;;;;;;;;14.68;93.04;99580.88;5033855;28;1009;-57
2022/05/31 00:19:04;;;;;;;;;;;;;;;14.78;92.77;99583.81;5016079;28;1173;-57
2022/05/31 00:21:41;;;;;;;;;;;;;;;14.86;92.45;99585.97;5033734;28;799;-57
2022/05/31 00:24:09;;;;;;;;;;;;;;;15.02;92.35;99581.56;5033826;28;799;-57
2022/05/31 00:26:37;;;;;;;;;;;;;;;15.14;91.92;99578.06;5033754;28;1894;-57
2022/05/31 00:29:03;;;;;;;;;;;;;;;15.25;91.88;99578.56;5033450;28;1190;-56
2022/05/31 00:31:30;;;;;;;;;;;;;;;15.36;91.49;99575.47;5033558;28;850;-57
2022/05/31 00:33:58;;;;;;;;;;;;;;;15.44;91.06;99579.63;5033500;28;906;-57
2022/05/31 00:36:25;;;;;;;;;;;;;;;15.51;90.61;99576.66;5033466;28;859;-57
2022/05/31 00:38:53;;;;;;;;;;;;;;;15.51;90.44;99575.84;5033552;28;951;-57
2022/05/31 00:41:23;;;;;;;;;;;;;;;15.42;90.39;99581.28;5033431;28;862;-57
2022/05/31 00:43:52;;;;;;;;;;;;;;;15.34;90.37;99577.94;5033596;28;843;-57
2022/05/31 00:46:22;;;;;;;;;;;;;;;15.39;90.30;99587.75;5033180;28;1973;-57
2022/05/31 00:48:56;;;;;;;;;;;;;;;15.39;90.50;99588.53;5033285;28;823;-57
2022/05/31 00:51:26;;;;;;;;;;;;;;;15.45;90.22;99591.56;5033118;28;783;-57
2022/05/31 00:54:00;;;;;;;;;;;;;;;15.44;90.24;99598.34;5033249;28;866;-57
2022/05/31 00:56:28;;;;;;;;;;;;;;;15.40;90.36;99600.44;5033074;28;822;-57
2022/05/31 00:59:00;;;;;;;;;;;;;;;15.43;90.37;99596.78;5033017;28;864;-57
2022/05/31 01:01:28;;;;;;;;;;;;;;;15.50;89.82;99597.34;5033075;28;795;-57
2022/05/31 01:03:55;;;;;;;;;;;;;;;15.56;89.76;99597.59;5032998;28;878;-57
2022/05/31 01:06:22;;;;;;;;;;;;;;;15.62;89.40;99590.28;5032830;28;1934;-57
2022/05/31 01:08:53;;;;;;;;;;;;;;;15.65;89.10;99594.16;5032910;28;846;-57
2022/05/31 01:11:21;;;;;;;;;;;;;;;15.62;89.00;99595.03;5032706;28;866;-57
2022/05/31 01:13:49;;;;;;;;;;;;;;;15.54;88.85;99596.50;5033083;28;807;-57
2022/05/31 01:16:15;;;;;;;;;;;;;;;15.32;89.17;99602.66;5015014;28;922;-57
2022/05/31 01:18:42;;;;;;;;;;;;;;;15.04;89.59;99602.22;5032637;28;1155;-57
2022/05/31 01:21:09;;;;;;;;;;;;;;;14.81;90.34;99603.19;5032518;28;898;-57
2022/05/31 01:23:49;;;;;;;;;;;;;;;14.64;91.00;99604.44;5032641;28;838;-57
2022/05/31 01:26:34;;;;;;;;;;;;;;;14.54;91.30;99613.78;5015313;28;1951;-57
2022/05/31 01:29:07;;;;;;;;;;;;;;;14.36;91.80;99608.63;5032515;28;1372;-57
2022/05/31 01:32:00;;;;;;;;;;;;;;;14.25;92.19;99606.09;5032690;28;883;-57
2022/05/31 01:34:49;;;;;;;;;;;;;;;14.07;92.61;99610.06;5029057;28;1709;-57
2022/05/31 01:37:16;;;;;;;;;;;;;;;13.97;93.18;99616.63;5032360;28;881;-57
2022/05/31 01:39:51;;;;;;;;;;;;;;;13.91;93.53;99612.78;5032151;28;878;-57
2022/05/31 01:42:51;;;;;;;;;;;;;;;13.90;93.90;99614.03;5032132;28;863;-57
2022/05/31 01:45:21;;;;;;;;;;;;;;;14.02;94.05;99623.69;4988681;28;1965;-57
2022/05/31 01:47:48;;;;;;;;;;;;;;;14.12;94.49;99625.44;5032148;28;854;-57
2022/05/31 01:50:17;;;;;;;;;;;;;;;14.26;94.90;99629.91;5032172;28;923;-58
2022/05/31 01:52:45;;;;;;;;;;;;;;;14.36;95.08;99630.88;5031953;28;938;-57
2022/05/31 01:55:13;;;;;;;;;;;;;;;14.37;95.25;99635.22;5032786;28;771;-57
2022/05/31 01:57:42;;;;;;;;;;;;;;;14.38;95.44;99639.56;5014828;28;847;-58
2022/05/31 02:00:11;;;;;;;;;;;;;;;14.40;95.48;99635.16;5031855;28;915;-57
2022/05/31 02:02:38;;;;;;;;;;;;;;;14.39;95.65;99636.34;5031938;28;1027;-57
2022/05/31 02:05:05;;;;;;;;;;;;;;;14.42;95.59;99645.81;5031731;28;1902;-57
2022/05/31 02:07:31;;;;;;;;;;;;;;;14.42;95.69;99648.59;5031939;28;873;-57
2022/05/31 02:09:58;;;;;;;;;;;;;;;14.43;95.73;99644.63;5031760;28;866;-57
2022/05/31 02:12:28;;;;;;;;;;;;;;;14.41;95.50;99656.16;5031833;28;815;-57
2022/05/31 02:14:56;;;;;;;;;;;;;;;14.37;95.71;99661.03;5031690;28;849;-57
2022/05/31 02:17:23;;;;;;;;;;;;;;;14.39;96.00;99666.16;5031676;28;926;-57
2022/05/31 02:19:50;;;;;;;;;;;;;;;14.35;95.88;99660.66;5031636;28;944;-57
2022/05/31 02:22:18;;;;;;;;;;;;;;;14.29;95.92;99651.28;5031618;28;910;-57
2022/05/31 02:24:45;;;;;;;;;;;;;;;14.25;96.01;99648.59;5031606;28;1885;-57
2022/05/31 02:27:14;;;;;;;;;;;;;;;14.25;96.25;99647.78;5031659;28;959;-57
2022/05/31 02:29:42;;;;;;;;;;;;;;;14.23;96.06;99647.44;5031107;28;1248;-57
2022/05/31 02:32:10;;;;;;;;;;;;;;;14.14;95.91;99648.03;5031764;28;863;-57
2022/05/31 02:34:38;;;;;;;;;;;;;;;14.01;96.04;99649.91;5031523;28;911;-57
2022/05/31 02:37:05;;;;;;;;;;;;;;;13.84;96.26;99651.84;5032802;28;823;-57
2022/05/31 02:39:30;;;;;;;;;;;;;;;13.68;96.39;99653.34;5038052;28;894;-57
2022/05/31 02:41:58;;;;;;;;;;;;;;;13.67;97.49;99665.66;5037988;28;862;-57
2022/05/31 02:44:25;;;;;;;;;;;;;;;13.80;97.60;99670.56;5020239;28;1714;-57
2022/05/31 02:46:52;;;;;;;;;;;;;;;13.90;98.00;99669.59;5037959;28;1918;-57
2022/05/31 02:49:19;;;;;;;;;;;;;;;13.99;97.84;99669.78;5037829;28;926;-57
2022/05/31 02:51:46;;;;;;;;;;;;;;;14.05;97.81;99675.63;5037996;28;834;-57
2022/05/31 02:54:14;;;;;;;;;;;;;;;14.06;97.77;99678.00;5037849;28;909;-57
2022/05/31 02:56:41;;;;;;;;;;;;;;;14.04;97.71;99674.06;5037941;28;941;-58
2022/05/31 02:59:08;;;;;;;;;;;;;;;13.96;97.96;99672.66;5037927;28;866;-58
2022/05/31 03:01:36;;;;;;;;;;;;;;;13.88;98.00;99674.78;5037851;28;843;-57
2022/05/31 03:04:03;;;;;;;;;;;;;;;13.82;97.97;99676.50;5037907;28;811;-57
2022/05/31 03:06:30;;;;;;;;;;;;;;;13.77;98.30;99677.78;5037726;28;1890;-57
2022/05/31 03:08:58;;;;;;;;;;;;;;;13.72;98.34;99672.72;5037781;28;835;-57
2022/05/31 03:11:31;;;;;;;;;;;;;;;13.69;98.59;99677.13;5037701;28;903;-57
2022/05/31 03:14:10;;;;;;;;;;;;;;;13.68;98.48;99674.78;5038310;28;878;-57
2022/05/31 03:16:39;;;;;;;;;;;;;;;13.69;98.63;99679.91;5037837;28;798;-57
2022/05/31 03:19:07;;;;;;;;;;;;;;;13.76;98.75;99680.97;5037610;28;791;-57
2022/05/31 03:21:40;;;;;;;;;;;;;;;13.85;98.67;99681.97;5037664;28;890;-57
2022/05/31 03:24:12;;;;;;;;;;;;;;;13.94;98.50;99675.84;5038619;28;759;-57
2022/05/31 03:26:40;;;;;;;;;;;;;;;14.05;98.13;99678.41;5037511;28;1890;-57
2022/05/31 03:29:08;;;;;;;;;;;;;;;14.16;97.92;99678.19;5037579;28;1161;-58
2022/05/31 03:31:35;;;;;;;;;;;;;;;14.21;97.75;99684.03;5037639;28;873;-57
2022/05/31 03:34:02;;;;;;;;;;;;;;;14.29;97.77;99681.84;5037673;28;877;-57
2022/05/31 03:36:28;;;;;;;;;;;;;;;14.38;97.21;99679.28;5037485;28;795;-58
2022/05/31 03:38:55;;;;;;;;;;;;;;;14.48;96.92;99677.47;5037616;28;799;-57
2022/05/31 03:41:22;;;;;;;;;;;;;;;14.58;96.49;99673.69;5037553;28;803;-57
2022/05/31 03:43:49;;;;;;;;;;;;;;;14.77;96.63;99676.84;5037516;28;791;-57
2022/05/31 03:46:16;;;;;;;;;;;;;;;15.07;95.51;99678.47;5037525;28;1918;-57
2022/05/31 03:48:42;;;;;;;;;;;;;;;15.43;94.04;99678.31;5035892;28;936;-57
2022/05/31 03:51:11;;;;;;;;;;;;;;;15.58;92.78;99677.94;5034359;28;1055;-57
2022/05/31 03:53:38;;;;;;;;;;;;;;;15.57;92.58;99670.81;5034527;28;823;-57
2022/05/31 03:56:07;;;;;;;;;;;;;;;15.55;92.51;99673.25;5034277;28;934;-57
2022/05/31 03:58:34;;;;;;;;;;;;;;;15.56;92.26;99670.03;5034281;28;870;-57
2022/05/31 04:01:00;;;;;;;;;;;;;;;15.63;91.73;99667.03;5034218;28;952;-58
2022/05/31 04:03:27;;;;;;;;;;;;;;;15.69;91.40;99662.50;5034106;28;873;-57
2022/05/31 04:05:54;;;;;;;;;;;;;;;15.80;91.24;99665.00;5034055;28;1951;-57
2022/05/31 04:08:22;;;;;;;;;;;;;;;15.90;90.37;99668.72;5034099;28;850;-57
2022/05/31 04:10:49;;;;;;;;;;;;;;;16.00;90.04;99672.41;5034019;28;795;-58
2022/05/31 04:13:17;;;;;;;;;;;;;;;16.15;89.56;99672.75;5033980;28;1024;-58
2022/05/31 04:15:44;;;;;;;;;;;;;;;16.31;89.16;99681.81;5033905;28;819;-57
2022/05/31 04:18:11;;;;;;;;;;;;;;;16.50;88.84;99676.50;5033780;28;842;-57
2022/05/31 04:20:37;;;;;;;;;;;;;;;16.62;88.00;99680.50;5033833;28;803;-57
2022/05/31 04:26:00;;;;;;;;;;;;;;;16.78;86.78;99669.22;5033672;28;2003;-57
2022/05/31 04:28:27;;;;;;;;;;;;;;;16.88;85.89;99670.91;5033907;28;992;-57
2022/05/31 04:30:54;;;;;;;;;;;;;;;17.03;85.56;99670.44;5033361;28;1279;-57
2022/05/31 04:33:20;;;;;;;;;;;;;;;17.16;85.06;99679.56;5033636;28;866;-57
2022/05/31 04:35:47;;;;;;;;;;;;;;;17.31;84.63;99674.28;5033523;28;822;-57
2022/05/31 04:38:13;;;;;;;;;;;;;;;17.46;84.20;99671.75;5033488;28;847;-57
2022/05/31 04:40:41;;;;;;;;;;;;;;;17.61;83.93;99680.41;5033436;28;862;-57
2022/05/31 04:43:07;;;;;;;;;;;;;;;17.83;83.33;99689.59;5033345;28;867;-57
2022/05/31 04:45:34;;;;;;;;;;;;;;;17.98;82.80;99689.09;5033367;28;1980;-59
2022/05/31 04:48:00;;;;;;;;;;;;;;;18.00;82.69;99683.81;5033221;28;838;-57
2022/05/31 04:50:27;;;;;;;;;;;;;;;18.05;82.48;99686.00;5033278;28;796;-57
2022/05/31 04:52:54;;;;;;;;;;;;;;;18.18;82.18;99692.34;5015403;28;1294;-57
2022/05/31 04:55:21;;;;;;;;;;;;;;;18.30;81.76;99691.44;5033165;28;799;-57
2022/05/31 04:57:47;;;;;;;;;;;;;;;18.43;81.20;99690.56;5033021;28;842;-57
2022/05/31 05:00:14;;;;;;;;;;;;;;;18.55;80.85;99700.91;5032706;28;877;-57
2022/05/31 05:02:42;;;;;;;;;;;;;;;18.71;80.70;99700.66;5032444;28;898;-57
2022/05/31 05:05:09;;;;;;;;;;;;;;;18.86;80.03;99697.28;5033136;28;1956;-57
2022/05/31 05:07:36;;;;;;;;;;;;;;;19.09;79.61;99704.38;5032902;28;833;-58
2022/05/31 05:10:06;;;;;;;;;;;;;;;19.45;78.85;99705.66;5033035;28;810;-58
2022/05/31 05:12:33;;;;;;;;;;;;;;;19.89;78.08;99708.97;5032791;28;923;-57
2022/05/31 05:15:00;;;;;;;;;;;;;;;20.38;76.49;99713.53;5032817;28;834;-57
2022/05/31 05:17:27;;;;;;;;;;;;;;;20.73;74.90;99704.69;5032657;28;806;-57
2022/05/31 05:19:54;;;;;;;;;;;;;;;21.08;74.14;99701.41;5032746;28;878;-57
2022/05/31 05:22:19;;;;;;;;;;;;;;;21.31;73.15;99705.44;5032638;28;834;-57
2022/05/31 05:24:45;;;;;;;;;;;;;;;21.61;71.09;99703.56;5032529;28;1947;-57
2022/05/31 05:27:12;;;;;;;;;;;;;;;22.02;69.73;99697.41;5032833;28;1001;-58
2022/05/31 05:32:23;;;;;;;;;;;;;;;22.69;67.20;99706.19;5032559;28;661;-57
2022/05/31 05:34:54;;;;;;;;;;;;;;;23.07;66.29;99710.13;5014790;28;819;-58
2022/05/31 05:37:21;;;;;;;;;;;;;;;23.35;65.26;99706.91;5032291;28;909;-58
2022/05/31 05:39:48;;;;;;;;;;;;;;;23.96;62.98;99715.31;5032269;28;1045;-57
2022/05/31 05:42:16;;;;;;;;;;;;;;;24.80;60.69;99708.84;5014491;28;1192;-58
2022/05/31 05:44:43;;;;;;;;;;;;;;;25.80;57.40;99707.03;5032145;28;1917;-57
2022/05/31 05:47:14;;;;;;;;;;;;;;;26.77;55.11;99712.25;5032049;28;931;-57
2022/05/31 05:49:41;;;;;;;;;;;;;;;27.79;51.67;99709.88;5032091;28;976;-58
2022/05/31 05:52:11;;;;;;;;;;;;;;;28.74;49.05;99713.31;5032169;28;803;-58
2022/05/31 05:54:38;;;;;;;;;;;;;;;29.58;46.60;99702.34;5032314;28;792;-57
2022/05/31 05:57:05;;;;;;;;;;;;;;;30.37;45.65;99701.22;5032455;28;815;-58
2022/05/31 05:59:31;;;;;;;;;;;;;;;30.95;43.57;99677.63;5032546;28;811;-58
2022/05/31 06:02:01;;;;;;;;;;;;;;;31.27;41.62;99700.34;5032160;28;886;-58
2022/05/31 06:04:33;;;;;;;;;;;;;;;31.74;41.16;99710.28;5031822;28;855;-57
2022/05/31 06:07:20;;;;;;;;;;;;;;;32.32;40.08;99708.44;5031807;28;1878;-58
2022/05/31 06:09:51;;;;;;;;;;;;;;;32.73;38.52;99713.41;5031722;28;1924;-57
2022/05/31 06:12:23;;;;;;;;;;;;;;;32.78;37.72;99710.97;5031411;28;842;-57
2022/05/31 06:14:58;;;;;;;;;;;;;;;33.05;37.74;99723.75;5031763;28;798;-57
2022/05/31 06:17:27;;;;;;;;;;;;;;;33.10;37.57;99713.50;5031666;28;823;-57
2022/05/31 06:19:54;;;;;;;;;;;;;;;33.38;37.04;99729.09;5031634;28;879;-58
2022/05/31 06:22:21;;;;;;;;;;;;;;;33.43;37.13;99720.34;5031733;28;791;-58
2022/05/31 06:24:49;;;;;;;;;;;;;;;33.58;37.13;99718.88;5031562;28;1917;-59
2022/05/31 06:27:15;;;;;;;;;;;;;;;33.41;37.81;99728.72;5031671;28;1052;-58
2022/05/31 06:29:42;;;;;;;;;;;;;;;33.41;37.27;99731.59;5031286;28;1420;-58
2022/05/31 06:32:08;;;;;;;;;;;;;;;33.11;37.20;99732.94;5031622;28;865;-58
2022/05/31 06:34:37;;;;;;;;;;;;;;;33.15;36.86;99724.78;5031578;28;810;-58
2022/05/31 06:37:05;;;;;;;;;;;;;;;33.55;35.77;99732.25;5031647;28;875;-60
2022/05/31 06:39:33;;;;;;;;;;;;;;;33.74;35.53;99727.00;5031498;28;779;-57
2022/05/31 06:42:00;;;;;;;;;;;;;;;34.44;34.82;99727.94;5031636;28;937;-57
2022/05/31 06:44:30;;;;;;;;;;;;;;;35.25;34.13;99719.69;5031324;28;903;-57
2022/05/31 06:46:57;;;;;;;;;;;;;;;35.50;33.66;99716.16;5031245;28;1914;-57
2022/05/31 06:49:23;;;;;;;;;;;;;;;35.43;32.49;99722.69;5031423;28;835;-57
2022/05/31 06:57:20;;;;;;;;;;;;;;;33.15;34.18;99719.03;5031380;28;609;-57
2022/05/31 06:59:47;;;;;;;;;;;;;;;32.38;35.07;99723.38;5031329;28;861;-57
2022/05/31 07:02:15;;;;;;;;;;;;;;;32.11;35.19;99717.78;5031578;28;861;-58
2022/05/31 07:04:41;;;;;;;;;;;;;;;32.23;36.26;99724.00;5031259;28;795;-58
2022/05/31 07:07:08;;;;;;;;;;;;;;;32.52;35.50;99721.22;5031313;28;1890;-58
2022/05/31 07:09:34;;;;;;;;;;;;;;;32.79;34.77;99716.09;5031216;28;880;-57
2022/05/31 07:12:01;;;;;;;;;;;;;;;32.85;34.54;99721.69;5031248;28;842;-57
2022/05/31 07:14:28;;;;;;;;;;;;;;;32.91;34.27;99714.47;5031360;28;882;-58
2022/05/31 07:16:54;;;;;;;;;;;;;;;33.36;34.68;99721.06;5031163;28;827;-57
2022/05/31 07:22:35;;;;;;;;;;;;;;;33.70;34.28;99723.75;5031136;28;676;-57
2022/05/31 07:25:03;;;;;;;;;;;;;;;33.83;32.73;99722.81;5033080;28;1890;-58
2022/05/31 07:27:30;;;;;;;;;;;;;;;33.53;34.04;99723.44;5034865;28;1070;-58
2022/05/31 07:29:56;;;;;;;;;;;;;;;33.42;33.66;99738.09;5034579;28;1467;-57
2022/05/31 07:32:23;;;;;;;;;;;;;;;33.16;33.67;99731.28;5034790;28;885;-58
2022/05/31 07:34:50;;;;;;;;;;;;;;;33.31;34.95;99722.00;5034572;28;847;-57
2022/05/31 07:37:17;;;;;;;;;;;;;;;33.61;34.08;99726.34;5034554;28;957;-57
2022/05/31 07:39:44;;;;;;;;;;;;;;;33.56;33.69;99719.44;5034789;28;914;-57
2022/05/31 07:42:11;;;;;;;;;;;;;;;33.36;34.16;99726.81;5034517;28;909;-57
2022/05/31 07:44:37;;;;;;;;;;;;;;;33.20;34.29;99728.03;5034340;28;958;-57
2022/05/31 07:47:05;;;;;;;;;;;;;;;33.27;33.91;99721.59;5034337;28;1918;-57
2022/05/31 07:49:31;;;;;;;;;;;;;;;33.36;34.70;99726.81;5034390;28;814;-57
2022/05/31 07:51:58;;;;;;;;;;;;;;;33.09;34.09;99726.25;5034260;28;914;-58
2022/05/31 07:54:28;;;;;;;;;;;;;;;32.89;34.06;99722.09;5034226;28;893;-58
2022/05/31 07:56:55;;;;;;;;;;;;;;;32.95;34.40;99720.63;5034276;28;807;-58
2022/05/31 07:59:21;;;;;;;;;;;;;;;33.59;33.87;99729.03;5034239;28;799;-58
2022/05/31 08:01:48;;;;;;;;;;;;;;;33.87;33.61;99726.09;5034218;28;1187;-57
2022/05/31 08:04:14;;;;;;;;;;;;;;;33.92;33.17;99725.13;5034095;28;818;-57
2022/05/31 08:06:41;;;;;;;;;;;;;;;34.36;32.54;99721.44;5034054;28;1894;-57
2022/05/31 08:09:08;;;;;;;;;;;;;;;34.73;32.14;99716.28;5034298;28;823;-58
2022/05/31 08:11:35;;;;;;;;;;;;;;;34.90;32.34;99724.31;5034019;28;869;-57
2022/05/31 08:14:03;;;;;;;;;;;;;;;35.07;33.24;99721.59;5033921;28;819;-58
2022/05/31 08:16:32;;;;;;;;;;;;;;;35.02;31.39;99719.72;5033822;28;941;-58
2022/05/31 08:18:59;;;;;;;;;;;;;;;34.97;32.54;99715.72;5033857;28;887;-58
2022/05/31 08:21:28;;;;;;;;;;;;;;;34.61;32.13;99715.91;5033696;28;926;-57
2022/05/31 08:23:59;;;;;;;;;;;;;;;34.43;33.50;99719.91;5033759;28;847;-57
2022/05/31 08:26:26;;;;;;;;;;;;;;;34.40;32.50;99718.97;5033666;28;1886;-58
2022/05/31 08:28:52;;;;;;;;;;;;;;;34.26;33.15;99712.63;5034108;28;966;-57
2022/05/31 08:31:24;;;;;;;;;;;;;;;34.05;32.96;99717.72;5033432;28;1332;-58
2022/05/31 08:33:51;;;;;;;;;;;;;;;34.23;32.03;99713.00;5034349;28;842;-57
2022/05/31 08:36:18;;;;;;;;;;;;;;;33.75;33.17;99710.56;5033178;28;897;-58
2022/05/31 08:38:44;;;;;;;;;;;;;;;34.19;33.64;99712.63;5034009;28;865;-58
2022/05/31 08:41:27;;;;;;;;;;;;;;;34.30;33.16;99710.13;5033403;28;807;-58
2022/05/31 08:43:59;;;;;;;;;;;;;;;34.02;33.27;99711.03;5033185;28;953;-58
2022/05/31 08:46:27;;;;;;;;;;;;;;;34.24;32.87;99708.81;5033383;28;1973;-58
2022/05/31 08:48:58;;;;;;;;;;;;;;;34.67;32.40;99702.13;5034042;28;780;-58
2022/05/31 08:51:53;;;;;;;;;;;;;;;35.05;32.42;99697.69;5033153;28;915;-58
2022/05/31 08:57:14;;;;;;;;;;;;;;;34.61;33.18;99707.31;5033551;28;621;-58
2022/05/31 08:59:50;;;;;;;;;;;;;;;35.02;32.87;99698.84;5033139;28;811;-58
2022/05/31 09:02:23;;;;;;;;;;;;;;;34.92;31.47;99701.53;5032961;28;899;-58
2022/05/31 09:05:03;;;;;;;;;;;;;;;34.45;32.66;99712.25;5032926;28;923;-58
2022/05/31 09:07:42;;;;;;;;;;;;;;;34.37;32.84;99708.63;5032912;28;946;-57
2022/05/31 09:10:28;;;;;;;;;;;;;;;33.85;32.46;99711.56;5032923;28;882;-58
2022/05/31 09:13:00;;;;;;;;;;;;;;;33.93;31.90;99703.00;5032886;28;803;-58
2022/05/31 09:15:38;;;;;;;;;;;;;;;34.04;32.64;99704.72;5032828;28;807;-58
2022/05/31 09:18:11;;;;;;;;;;;;;;;33.72;34.15;99695.28;5032810;28;796;-58
2022/05/31 09:20:46;;;;;;;;;;;;;;;33.74;33.98;99695.47;5032692;28;934;-58
2022/05/31 09:23:21;;;;;;;;;;;;;;;33.53;34.87;99694.81;5015370;28;657;-57
2022/05/31 09:25:52;;;;;;;;;;;;;;;33.35;34.89;99690.88;5032541;28;1899;-58
2022/05/31 09:28:42;;;;;;;;;;;;;;;33.14;35.15;99686.03;5032848;28;914;-58
2022/05/31 09:31:35;;;;;;;;;;;;;;;32.68;35.00;99691.41;5032124;28;1689;-58
2022/05/31 09:34:20;;;;;;;;;;;;;;;32.18;36.03;99693.47;5002213;28;1122;-58
2022/05/31 09:37:08;;;;;;;;;;;;;;;32.12;36.08;99684.25;5032339;28;874;-58
2022/05/31 09:39:34;;;;;;;;;;;;;;;32.05;36.42;99685.72;5032112;28;1856;-58
2022/05/31 09:42:21;;;;;;;;;;;;;;;31.74;38.26;99687.44;5032179;28;957;-57
2022/05/31 09:45:02;;;;;;;;;;;;;;;31.72;37.46;99690.84;5032442;28;1750;-57
2022/05/31 09:47:28;;;;;;;;;;;;;;;31.30;37.42;99682.13;5031534;28;865;-58
2022/05/31 09:49:55;;;;;;;;;;;;;;;30.67;39.36;99696.00;5032193;28;839;-59
2022/05/31 09:52:29;;;;;;;;;;;;;;;30.43;39.53;99691.25;5032222;28;791;-57
2022/05/31 09:58:11;;;;;;;;;;;;;;;30.53;40.23;99689.53;5032378;28;660;-57
2022/05/31 10:29:28;;;;;;;;;;;;;;;31.83;35.72;99675.53;5357784;22;1514;-57
2022/05/31 10:31:57;;;;;;;;;;;;;;;31.66;36.07;99672.28;5021374;28;1751;-57
2022/05/31 10:34:33;;;;;;;;;;;;;;;31.61;36.58;99673.19;5014615;28;795;-58
2022/05/31 10:37:01;;;;;;;;;;;;;;;31.42;35.20;99670.47;5031523;28;1046;-57
2022/05/31 10:39:29;;;;;;;;;;;;;;;31.25;36.68;99670.81;5031487;28;969;-57
2022/05/31 10:41:57;;;;;;;;;;;;;;;31.46;37.64;99663.13;5031569;28;819;-58
2022/05/31 10:44:38;;;;;;;;;;;;;;;31.55;37.13;99667.59;5031402;28;842;-57
2022/05/31 10:47:12;;;;;;;;;;;;;;;31.78;35.51;99667.88;5031389;28;1969;-57
2022/05/31 10:49:39;;;;;;;;;;;;;;;32.02;33.81;99672.50;5031424;28;905;-58
2022/05/31 10:52:12;;;;;;;;;;;;;;;32.00;33.09;99674.41;5013782;28;1694;-57
2022/05/31 10:54:57;;;;;;;;;;;;;;;32.31;33.85;99655.44;5031318;28;871;-57
2022/05/31 10:57:32;;;;;;;;;;;;;;;32.65;34.53;99658.22;5031346;28;897;-57
2022/05/31 11:00:20;;;;;;;;;;;;;;;32.88;33.27;99657.59;5035505;28;803;-57
2022/05/31 11:02:53;;;;;;;;;;;;;;;32.94;33.52;99661.06;5035196;28;909;-57
2022/05/31 11:05:25;;;;;;;;;;;;;;;32.82;33.14;99657.75;5035335;28;1890;-57
2022/05/31 11:13:50;;;;;;;;;;;;;;;33.07;33.45;99648.75;5035469;28;687;-57
2022/05/31 11:16:16;;;;;;;;;;;;;;;33.19;33.43;99652.06;5034974;28;830;-56
2022/05/31 11:18:43;;;;;;;;;;;;;;;33.20;33.42;99653.59;5034951;28;929;-57
2022/05/31 11:21:17;;;;;;;;;;;;;;;33.56;32.85;99637.16;5017224;28;1314;-57
2022/05/31 11:23:47;;;;;;;;;;;;;;;33.21;33.81;99646.56;5034832;28;885;-57
2022/05/31 11:26:24;;;;;;;;;;;;;;;32.58;33.74;99641.00;5034867;28;1885;-57
2022/05/31 11:29:09;;;;;;;;;;;;;;;33.00;33.04;99644.50;5034724;28;1203;-57
2022/05/31 11:31:45;;;;;;;;;;;;;;;33.61;32.51;99644.06;5034776;28;832;-58
2022/05/31 11:34:23;;;;;;;;;;;;;;;34.02;31.39;99635.72;5034987;28;897;-57
2022/05/31 11:37:08;;;;;;;;;;;;;;;34.58;30.27;99634.59;5034725;28;803;-58
2022/05/31 11:39:53;;;;;;;;;;;;;;;34.36;30.20;99635.38;5034594;28;950;-58
2022/05/31 11:42:20;;;;;;;;;;;;;;;34.76;31.63;99635.56;5034863;28;885;-57
2022/05/31 11:44:59;;;;;;;;;;;;;;;35.21;30.59;99629.50;5034579;28;849;-57
2022/05/31 11:47:34;;;;;;;;;;;;;;;35.70;29.92;99626.03;5034467;28;831;-57
2022/05/31 11:50:19;;;;;;;;;;;;;;;35.67;29.56;99626.44;5016767;28;1793;-57
2022/05/31 11:52:49;;;;;;;;;;;;;;;35.61;29.32;99628.75;5034320;28;889;-57
2022/05/31 11:55:26;;;;;;;;;;;;;;;35.48;29.18;99626.88;5034618;28;810;-58
2022/05/31 11:58:16;;;;;;;;;;;;;;;36.03;29.02;99626.00;5034186;28;877;-57
2022/05/31 12:00:46;;;;;;;;;;;;;;;36.50;28.55;99620.63;5034101;28;854;-58
2022/05/31 12:03:19;;;;;;;;;;;;;;;36.51;27.50;99620.06;5034610;28;826;-58
2022/05/31 12:05:49;;;;;;;;;;;;;;;36.81;27.26;99623.22;5034129;28;1955;-58
2022/05/31 12:08:42;;;;;;;;;;;;;;;37.75;27.44;99620.16;5034180;28;1060;-57
2022/05/31 12:11:21;;;;;;;;;;;;;;;37.89;26.19;99617.63;5030137;28;1301;-58
2022/05/31 12:13:48;;;;;;;;;;;;;;;37.46;26.18;99619.22;5034059;28;815;-58
2022/05/31 12:16:16;;;;;;;;;;;;;;;37.61;25.63;99618.25;5033942;28;846;-57
2022/05/31 12:18:42;;;;;;;;;;;;;;;38.14;25.88;99623.22;5034107;28;862;-58
2022/05/31 12:21:27;;;;;;;;;;;;;;;38.28;24.93;99614.94;5033941;28;877;-58
2022/05/31 12:23:58;;;;;;;;;;;;;;;38.21;24.48;99607.16;5033766;28;909;-57
2022/05/31 12:26:34;;;;;;;;;;;;;;;38.53;24.45;99606.03;5033586;28;1890;-58
2022/05/31 12:29:13;;;;;;;;;;;;;;;38.67;24.11;99599.81;5033666;28;1412;-58
2022/05/31 12:31:41;;;;;;;;;;;;;;;38.66;24.66;99607.69;5033710;28;905;-58
2022/05/31 12:34:33;;;;;;;;;;;;;;;38.60;24.57;99598.56;5033719;28;856;-58
2022/05/31 12:37:02;;;;;;;;;;;;;;;37.88;25.53;99600.94;5033767;28;1824;-57
2022/05/31 12:39:33;;;;;;;;;;;;;;;38.00;25.63;99596.91;5033443;28;961;-58
2022/05/31 12:42:17;;;;;;;;;;;;;;;35.73;27.15;99589.59;5033734;28;891;-58
2022/05/31 12:44:48;;;;;;;;;;;;;;;35.20;28.14;99579.91;5033362;28;934;-57
2022/05/31 12:47:18;;;;;;;;;;;;;;;36.46;27.12;99580.00;5015529;28;1976;-57
2022/05/31 12:49:52;;;;;;;;;;;;;;;37.18;26.83;99586.72;5033367;28;810;-58
2022/05/31 12:54:53;;;;;;;;;;;;;;;37.91;25.35;99583.19;5033258;28;858;-57
2022/05/31 12:57:22;;;;;;;;;;;;;;;38.29;25.66;99578.91;5033059;28;1352;-57
2022/05/31 12:59:50;;;;;;;;;;;;;;;37.95;25.93;99586.38;5033198;28;854;-59
2022/05/31 13:02:29;;;;;;;;;;;;;;;37.71;27.30;99587.38;5033090;28;787;-59
2022/05/31 13:05:00;;;;;;;;;;;;;;;37.76;28.15;99580.53;5032951;28;958;-58
2022/05/31 13:07:47;;;;;;;;;;;;;;;38.15;28.77;99577.81;5032925;28;894;-58
2022/05/31 13:10:31;;;;;;;;;;;;;;;37.86;28.65;99571.94;5032742;28;1931;-58
2022/05/31 13:21:27;;;;;;;;;;;;;;;34.97;31.99;99571.38;5032439;28;608;-58
2022/05/31 13:23:54;;;;;;;;;;;;;;;33.14;34.12;99568.66;5014643;28;1352;-58
2022/05/31 13:26:23;;;;;;;;;;;;;;;32.83;35.14;99567.72;5032459;28;1890;-58
2022/05/31 13:29:05;;;;;;;;;;;;;;;32.43;36.10;99564.41;5032499;28;1348;-58
2022/05/31 13:31:37;;;;;;;;;;;;;;;33.01;35.64;99568.75;5032818;28;885;-58
2022/05/31 13:34:05;;;;;;;;;;;;;;;33.80;34.26;99559.81;5032687;28;846;-58
2022/05/31 13:36:51;;;;;;;;;;;;;;;33.15;34.62;99569.41;5032495;28;841;-58
2022/05/31 13:39:18;;;;;;;;;;;;;;;34.30;33.26;99554.50;5031925;28;1746;-58
2022/05/31 13:41:47;;;;;;;;;;;;;;;34.88;32.22;99546.16;5032287;28;870;-58
2022/05/31 13:44:18;;;;;;;;;;;;;;;34.61;33.16;99543.75;5032447;28;913;-58
2022/05/31 13:46:47;;;;;;;;;;;;;;;34.30;34.20;99543.78;5032334;28;1918;-58
2022/05/31 13:49:17;;;;;;;;;;;;;;;34.40;34.38;99535.38;5032433;28;791;-57
2022/05/31 13:51:58;;;;;;;;;;;;;;;34.64;34.54;99542.59;5032327;28;791;-58
2022/05/31 13:54:28;;;;;;;;;;;;;;;35.22;34.21;99533.38;5032020;28;833;-57
2022/05/31 13:56:57;;;;;;;;;;;;;;;35.20;34.17;99536.06;5032358;28;878;-58
2022/05/31 13:59:42;;;;;;;;;;;;;;;34.88;33.98;99526.06;5032317;28;1059;-58
2022/05/31 14:02:13;;;;;;;;;;;;;;;34.57;33.62;99532.66;5032047;28;878;-58
2022/05/31 14:04:41;;;;;;;;;;;;;;;33.46;34.95;99538.00;5032070;28;1015;-58
2022/05/31 14:07:14;;;;;;;;;;;;;;;32.60;36.79;99538.97;5032045;28;1983;-58
2022/05/31 14:09:45;;;;;;;;;;;;;;;31.90;38.60;99531.97;5031929;28;838;-58
2022/05/31 14:12:18;;;;;;;;;;;;;;;31.19;39.65;99544.56;5032003;28;907;-57
2022/05/31 14:15:02;;;;;;;;;;;;;;;30.50;40.74;99530.94;5031785;28;810;-57
2022/05/31 14:17:41;;;;;;;;;;;;;;;29.83;41.88;99537.81;5031865;28;893;-57
2022/05/31 14:20:28;;;;;;;;;;;;;;;29.54;41.68;99536.75;5031701;28;886;-57
2022/05/31 14:23:04;;;;;;;;;;;;;;;29.43;42.15;99537.69;5031717;28;909;-57
2022/05/31 14:25:31;;;;;;;;;;;;;;;29.29;43.35;99539.69;5031599;28;1947;-57
2022/05/31 14:27:58;;;;;;;;;;;;;;;29.19;44.17;99535.69;5031540;28;1305;-57
2022/05/31 14:30:29;;;;;;;;;;;;;;;29.08;44.57;99537.38;5031471;28;1327;-57